This is the latest recevied weather packets stored in our database for station/object R2AKT-13. If no packets are shown the sender has not sent any weather packets the latest 10 day(s).
| Time | Temp. | Humidity | Pressure | Rain* | Wind** | Luminosity | Snow |
|---|---|---|---|---|---|---|---|
| 1777907679 | 23.33° C | 34% | 984.2 hPa | - | 0.89 m/s, 255° | - | - |
| 1777907169 | 23.89° C | 33% | 984.3 hPa | - | 0.45 m/s, 149° | - | - |
| 1777906674 | 23.89° C | 32% | 984.2 hPa | - | 1.34 m/s, 112° | - | - |
| 1777906079 | 24.44° C | 31% | 984.3 hPa | - | 0.89 m/s, 182° | - | - |
| 1777905584 | 24.44° C | 33% | 984.4 hPa | - | 0.45 m/s, 154° | - | - |
| 1777905014 | 24.44° C | 32% | 984.5 hPa | - | 0.45 m/s, 105° | - | - |
| 1777904504 | 24.44° C | 32% | 984.5 hPa | - | 0.45 m/s, 140° | - | - |
| 1777904014 | 24.44° C | 33% | 984.6 hPa | - | 0 m/s | - | - |
| 1777903509 | 22.78° C | 35% | 984.7 hPa | - | 0.89 m/s, 307° | - | - |
| 1777902989 | 22.78° C | 36% | 984.8 hPa | - | 0.45 m/s, 242° | - | - |
| 1777902494 | 22.78° C | 35% | 984.8 hPa | - | 2.24 m/s, 230° | - | - |
| 1777901959 | 23.33° C | 33% | 984.7 hPa | - | 0.89 m/s, 180° | - | - |
| 1777901439 | 23.33° C | 33% | 984.8 hPa | - | 1.34 m/s, 207° | - | - |
| 1777900949 | 23.89° C | 32% | 984.7 hPa | - | 1.34 m/s, 174° | - | - |
| 1777900384 | 23.89° C | 31% | 984.7 hPa | - | 0.89 m/s, 173° | - | - |
| 1777899794 | 23.33° C | 31% | 984.7 hPa | - | 1.34 m/s, 159° | - | - |
| 1777899259 | 23.33° C | 31% | 984.5 hPa | - | 1.34 m/s, 156° | - | - |
| 1777898714 | 23.89° C | 31% | 984.7 hPa | - | 1.79 m/s, 157° | - | - |
| 1777898154 | 23.89° C | 30% | 984.6 hPa | - | 1.79 m/s, 252° | - | - |
| 1777897614 | 24.44° C | 30% | 984.6 hPa | - | 1.79 m/s, 199° | - | - |
| 1777897129 | 23.89° C | 31% | 984.7 hPa | - | 1.79 m/s, 181° | - | - |
| 1777896604 | 23.89° C | 32% | 984.8 hPa | - | 0.89 m/s, 103° | - | - |
| 1777896019 | 23.89° C | 33% | 984.7 hPa | - | 1.34 m/s, 157° | - | - |
| 1777895444 | 23.89° C | 33% | 984.9 hPa | - | 1.34 m/s, 216° | - | - |
| 1777894864 | 23.33° C | 34% | 985 hPa | - | 0.89 m/s, 146° | - | - |
* Rain since midnight (hover to see other rain measurements)
** Current wind speed in m/s (hover to see current wind gust speed)